createdAt,value
2024-03-27T00:01:50.744Z,6.80
2024-03-27T00:06:55.697Z,6.87
2024-03-27T00:11:57.678Z,6.87
2024-03-27T00:16:59.803Z,6.85
2024-03-27T00:22:01.806Z,6.85
2024-03-27T00:27:04.692Z,6.88
2024-03-27T00:32:06.731Z,6.84
2024-03-27T00:37:08.723Z,6.86
2024-03-27T00:42:10.594Z,6.85
2024-03-27T00:47:12.303Z,6.83
2024-03-27T00:52:14.058Z,6.79
2024-03-27T00:57:15.851Z,6.73
2024-03-27T01:02:17.911Z,6.69
2024-03-27T01:07:19.687Z,6.66
2024-03-27T01:12:21.683Z,6.57
2024-03-27T01:17:23.499Z,6.49
2024-03-27T01:22:25.147Z,6.43
2024-03-27T01:27:27.227Z,6.32
2024-03-27T01:32:28.985Z,6.21
2024-03-27T01:37:30.820Z,6.10
2024-03-27T01:42:35.918Z,5.99
2024-03-27T01:47:37.846Z,5.95
2024-03-27T01:52:41.415Z,5.93
2024-03-27T01:57:44.632Z,5.89
2024-03-27T02:02:47.635Z,5.80
2024-03-27T02:07:49.410Z,5.70
2024-03-27T02:12:51.289Z,5.61
2024-03-27T02:17:52.915Z,5.60
2024-03-27T02:22:59.900Z,5.54
2024-03-27T02:28:01.702Z,5.42
2024-03-27T02:33:03.565Z,5.33
2024-03-27T02:38:05.224Z,5.26
2024-03-27T02:43:07.098Z,5.19
2024-03-27T02:48:08.850Z,5.14
2024-03-27T02:53:10.625Z,5.09
2024-03-27T02:58:12.410Z,5.07
2024-03-27T03:03:14.183Z,5.11
2024-03-27T03:08:15.823Z,5.18
2024-03-27T03:13:17.530Z,5.24
2024-03-27T03:18:19.409Z,5.30
2024-03-27T03:23:21.187Z,5.38
2024-03-27T03:28:23.477Z,5.48
2024-03-27T03:33:25.184Z,5.54
2024-03-27T03:38:29.595Z,5.57
2024-03-27T03:43:31.397Z,5.54
2024-03-27T03:48:33.664Z,5.48
2024-03-27T03:53:35.422Z,5.40
2024-03-27T03:58:37.104Z,5.33
2024-03-27T04:03:38.769Z,5.29
2024-03-27T04:08:40.499Z,5.32
2024-03-27T04:13:42.264Z,5.36
2024-03-27T04:18:44.259Z,5.36
2024-03-27T04:23:46.613Z,5.39
2024-03-27T04:28:48.260Z,5.47
2024-03-27T04:33:51.090Z,5.55
2024-03-27T04:38:53.616Z,5.61
2024-03-27T04:43:55.460Z,5.59
2024-03-27T04:48:57.087Z,5.52
2024-03-27T04:53:58.766Z,5.43
2024-03-27T04:59:00.570Z,5.35
2024-03-27T05:04:03.389Z,5.29
2024-03-27T05:09:05.062Z,5.26
2024-03-27T05:14:06.942Z,5.28
2024-03-27T05:19:08.741Z,5.34
2024-03-27T05:24:11.351Z,5.48
2024-03-27T05:29:13.914Z,5.64
2024-03-27T05:34:17.071Z,5.77
2024-03-27T05:39:20.188Z,5.91
2024-03-27T05:44:22.020Z,6.04
2024-03-27T05:49:25.563Z,6.18
2024-03-27T05:54:27.305Z,6.36
2024-03-27T05:59:29.113Z,6.58
2024-03-27T06:04:31.689Z,6.79
2024-03-27T06:09:33.662Z,7.00
2024-03-27T06:14:35.450Z,7.24
2024-03-27T06:19:37.124Z,7.49
2024-03-27T06:24:38.918Z,7.75
2024-03-27T06:29:40.873Z,8.05
2024-03-27T06:34:42.467Z,8.33
2024-03-27T06:39:44.138Z,8.64
2024-03-27T06:49:48.420Z,9.28
2024-03-27T06:54:51.909Z,9.62
2024-03-27T06:59:53.587Z,10.01
2024-03-27T07:04:56.841Z,10.38
2024-03-27T07:09:59.813Z,10.77
2024-03-27T07:15:01.650Z,11.13
2024-03-27T07:20:05.871Z,11.47
2024-03-27T07:25:08.374Z,11.80
2024-03-27T07:30:12.972Z,12.05
2024-03-27T07:35:15.014Z,12.35
2024-03-27T07:40:16.779Z,12.61
2024-03-27T07:45:18.926Z,12.86
2024-03-27T07:50:20.582Z,13.06
2024-03-27T07:55:22.965Z,13.23
2024-03-27T08:00:24.741Z,13.39
2024-03-27T08:05:26.624Z,13.57
2024-03-27T08:10:30.893Z,13.76
2024-03-27T08:15:32.681Z,13.96
2024-03-27T08:20:34.615Z,14.15
2024-03-27T08:25:36.623Z,14.30
2024-03-27T08:30:38.375Z,14.45
2024-03-27T08:35:40.768Z,14.57
2024-03-27T08:40:42.763Z,14.75
2024-03-27T08:45:45.276Z,14.90
2024-03-27T08:50:47.631Z,15.03
2024-03-27T08:55:49.516Z,15.14
2024-03-27T09:00:51.601Z,15.30
2024-03-27T09:05:56.075Z,15.45
2024-03-27T09:10:59.380Z,15.63
2024-03-27T09:16:01.141Z,15.79
2024-03-27T09:21:03.017Z,15.94
2024-03-27T09:26:06.143Z,16.13
2024-03-27T09:31:09.031Z,16.29
2024-03-27T09:36:15.450Z,16.41
2024-03-27T09:41:17.175Z,16.48
2024-03-27T09:46:18.962Z,16.58
2024-03-27T09:51:21.763Z,16.71
2024-03-27T09:56:23.436Z,16.86
2024-03-27T10:01:34.772Z,16.93
2024-03-27T10:06:43.438Z,16.93
2024-03-27T10:11:45.165Z,17.02
2024-03-27T10:16:46.944Z,17.13
2024-03-27T10:21:48.882Z,17.23
2024-03-27T10:26:52.699Z,17.35
2024-03-27T10:31:55.166Z,17.44
2024-03-27T10:36:57.713Z,17.54
2024-03-27T10:41:59.641Z,17.65
2024-03-27T10:47:06.264Z,17.70
2024-03-27T10:52:10.757Z,17.75
2024-03-27T10:57:14.418Z,17.62
2024-03-27T11:02:19.349Z,17.78
2024-03-27T11:07:21.695Z,17.84
2024-03-27T11:12:24.471Z,17.84
2024-03-27T11:17:30.081Z,17.89
2024-03-27T11:22:32.073Z,17.97
2024-03-27T11:27:33.777Z,18.01
2024-03-27T11:32:40.218Z,18.07
2024-03-27T11:37:42.302Z,18.13
2024-03-27T11:42:44.177Z,18.14
2024-03-27T11:47:47.094Z,18.10
2024-03-27T11:52:49.175Z,18.10
2024-03-27T11:57:50.807Z,18.16
2024-03-27T12:02:53.079Z,18.24
2024-03-27T12:07:55.010Z,18.31
2024-03-27T12:12:56.877Z,18.40
2024-03-27T12:18:01.905Z,18.49
2024-03-27T12:23:04.106Z,18.60
2024-03-27T12:28:08.735Z,18.66
2024-03-27T12:33:10.756Z,18.80
2024-03-27T12:38:13.251Z,18.85
2024-03-27T12:43:14.956Z,18.77
2024-03-27T12:48:21.694Z,18.77
2024-03-27T12:53:24.031Z,18.79
2024-03-27T12:58:25.704Z,18.82
2024-03-27T13:03:27.493Z,18.99
2024-03-27T13:08:29.313Z,19.15
2024-03-27T13:13:32.272Z,19.43
2024-03-27T13:18:33.819Z,19.65
2024-03-27T13:23:37.842Z,19.87
2024-03-27T13:28:40.077Z,19.92
2024-03-27T13:33:41.782Z,19.82
2024-03-27T13:38:43.593Z,19.47
2024-03-27T13:43:45.365Z,19.03
2024-03-27T13:48:50.164Z,18.62
2024-03-27T13:53:52.094Z,18.43
2024-03-27T13:58:53.872Z,18.45
2024-03-27T14:03:55.557Z,18.73
2024-03-27T14:08:57.215Z,19.04
2024-03-27T14:14:01.878Z,19.25
2024-03-27T14:19:04.762Z,19.45
2024-03-27T14:24:08.702Z,19.58
2024-03-27T14:29:10.410Z,19.71
2024-03-27T14:34:12.253Z,20.05
2024-03-27T14:39:16.533Z,20.28
2024-03-27T14:44:20.928Z,20.38
2024-03-27T14:49:25.912Z,20.51
2024-03-27T14:54:27.556Z,20.47
2024-03-27T14:59:29.331Z,20.34
2024-03-27T15:04:31.111Z,20.33
2024-03-27T15:09:40.985Z,20.38
2024-03-27T15:14:47.464Z,20.40
2024-03-27T15:19:50.395Z,20.26
2024-03-27T15:24:52.151Z,19.94
2024-03-27T15:29:53.879Z,19.51
2024-03-27T15:34:56.316Z,19.00
2024-03-27T15:39:58.123Z,18.69
2024-03-27T15:45:00.815Z,18.55
2024-03-27T15:50:03.227Z,18.46
2024-03-27T15:55:05.785Z,18.24
2024-03-27T16:00:10.748Z,17.96
2024-03-27T16:05:15.294Z,17.61
2024-03-27T16:10:17.386Z,17.25
2024-03-27T16:15:19.172Z,16.92
2024-03-27T16:20:20.891Z,16.59
2024-03-27T16:25:22.584Z,16.30
2024-03-27T16:30:24.869Z,15.99
2024-03-27T16:35:26.550Z,15.67
2024-03-27T16:40:28.333Z,15.38
2024-03-27T16:45:30.118Z,15.11
2024-03-27T16:50:31.986Z,14.83
2024-03-27T16:55:33.691Z,14.62
2024-03-27T17:00:44.554Z,14.37
2024-03-27T17:05:53.022Z,14.14
2024-03-27T17:10:54.672Z,13.94
2024-03-27T17:15:56.575Z,13.71
2024-03-27T17:20:58.347Z,13.45
2024-03-27T17:26:00.117Z,13.17
2024-03-27T17:31:02.135Z,12.94
2024-03-27T17:36:04.582Z,12.76
2024-03-27T17:41:06.450Z,12.58
2024-03-27T17:46:08.532Z,12.44
2024-03-27T17:51:10.355Z,12.32
2024-03-27T17:56:12.616Z,12.22
2024-03-27T18:01:15.913Z,12.16
2024-03-27T18:06:17.693Z,12.11
2024-03-27T18:11:19.467Z,12.12
2024-03-27T18:16:24.784Z,12.12
2024-03-27T18:21:26.605Z,12.06
2024-03-27T18:26:28.792Z,11.97
2024-03-27T18:31:30.497Z,11.89
2024-03-27T18:36:33.687Z,11.87
2024-03-27T18:41:35.372Z,11.73
2024-03-27T18:46:38.676Z,11.78
2024-03-27T18:51:40.444Z,11.71
2024-03-27T18:56:42.472Z,11.63
2024-03-27T19:01:44.206Z,11.55
2024-03-27T19:06:55.402Z,11.50
2024-03-27T19:11:57.391Z,11.40
2024-03-27T19:16:59.171Z,11.34
2024-03-27T19:22:02.390Z,11.25
2024-03-27T19:27:06.881Z,11.15
2024-03-27T19:32:08.795Z,11.06
2024-03-27T19:37:10.426Z,10.93
2024-03-27T19:42:12.764Z,10.78
2024-03-27T19:47:14.460Z,10.62
2024-03-27T19:52:26.216Z,10.56
2024-03-27T19:57:31.203Z,10.59
2024-03-27T20:02:33.284Z,10.71
2024-03-27T20:07:35.434Z,10.95
2024-03-27T20:12:37.553Z,11.12
2024-03-27T20:17:39.227Z,11.18
2024-03-27T20:22:40.859Z,11.14
2024-03-27T20:27:52.715Z,11.05
2024-03-27T20:32:54.621Z,10.96
2024-03-27T20:37:56.679Z,10.87
2024-03-27T20:43:00.913Z,10.83
2024-03-27T20:48:03.009Z,10.87
2024-03-27T20:53:05.394Z,10.99
2024-03-27T20:58:08.877Z,11.17
2024-03-27T21:03:10.683Z,11.33
2024-03-27T21:08:12.359Z,11.40
2024-03-27T21:13:14.073Z,11.45
2024-03-27T21:18:15.920Z,11.46
2024-03-27T21:23:17.626Z,11.42
2024-03-27T21:28:19.436Z,11.33
2024-03-27T21:33:21.091Z,11.26
2024-03-27T21:38:22.916Z,11.19
2024-03-27T21:43:25.522Z,11.13
2024-03-27T21:48:27.396Z,11.03
2024-03-27T21:53:30.129Z,10.95
2024-03-27T21:58:31.832Z,10.84
2024-03-27T22:03:33.561Z,10.77
2024-03-27T22:08:39.800Z,10.66
2024-03-27T22:13:41.469Z,10.56
2024-03-27T22:18:43.216Z,10.50
2024-03-27T22:23:44.884Z,10.47
2024-03-27T22:28:46.632Z,10.46
2024-03-27T22:33:48.310Z,10.44
2024-03-27T22:38:50.086Z,10.45
2024-03-27T22:43:56.172Z,10.48
2024-03-27T22:49:01.676Z,10.49
2024-03-27T22:54:04.251Z,10.47
2024-03-27T22:59:06.006Z,10.39
2024-03-27T23:04:07.881Z,10.28
2024-03-27T23:09:09.762Z,10.16
2024-03-27T23:14:11.540Z,10.07
2024-03-27T23:19:13.328Z,10.01
2024-03-27T23:24:15.195Z,10.02
2024-03-27T23:29:16.996Z,10.04
2024-03-27T23:34:18.762Z,10.08
2024-03-27T23:39:21.372Z,10.15
2024-03-27T23:44:23.344Z,10.24
2024-03-27T23:49:25.211Z,10.26
2024-03-27T23:54:26.984Z,10.23
2024-03-27T23:59:28.772Z,10.22
